Time;durP1;ratioP1;P1;durP2;ratioP2;P2;SDS_P1;SDS_P2;PMS_P1;PMS_P2;Temp;Humidity;BMP_temperature;BMP_pressure;BME280_temperature;BME280_humidity;BME280_pressure;Samples;Min_cycle;Max_cycle;Signal;HPM_P1;HPM_P2
2021/12/10 00:00:16;;;;;;;21.60;13.00;;;4.20;99.90;;;;;;4992778;28;20019;-70
2021/12/10 00:02:46;;;;;;;20.15;12.23;;;4.20;99.90;;;;;;4992970;28;20469;-72
2021/12/10 00:05:18;;;;;;;21.48;12.48;;;4.10;99.90;;;;;;4993083;28;20477;-72
2021/12/10 00:07:46;;;;;;;20.77;12.68;;;4.10;99.90;;;;;;4995784;28;20101;-71
2021/12/10 00:10:16;;;;;;;19.42;12.52;;;4.20;99.90;;;;;;4996338;28;20034;-72
2021/12/10 00:12:51;;;;;;;20.23;11.93;;;4.20;99.90;;;;;;4995380;28;20113;-70
2021/12/10 00:15:24;;;;;;;19.92;12.65;;;4.30;99.90;;;;;;4996445;28;20050;-71
2021/12/10 00:17:52;;;;;;;20.00;12.32;;;4.20;99.90;;;;;;4996537;28;20109;-71
2021/12/10 00:20:20;;;;;;;19.10;12.27;;;4.30;99.90;;;;;;4996595;28;20473;-71
2021/12/10 00:22:54;;;;;;;20.42;12.63;;;4.30;99.90;;;;;;4996137;28;20050;-70
2021/12/10 00:25:24;;;;;;;23.05;13.23;;;4.30;99.90;;;;;;4996329;28;20431;-71
2021/12/10 00:27:52;;;;;;;21.83;14.15;;;4.30;99.90;;;;;;4995788;28;20139;-71
2021/12/10 00:30:33;;;;;;;22.27;13.88;;;4.30;99.90;;;;;;4996067;28;20113;-73
2021/12/10 00:33:20;;;;;;;21.95;13.48;;;4.20;99.90;;;;;;4996046;28;20033;-70
2021/12/10 00:35:46;;;;;;;24.30;13.23;;;4.30;99.90;;;;;;4996082;28;20046;-70
2021/12/10 00:38:13;;;;;;;20.10;12.77;;;4.30;99.90;;;;;;4995973;28;20023;-68
2021/12/10 00:40:39;;;;;;;32.80;14.57;;;4.30;99.90;;;;;;4996141;28;20473;-71
2021/12/10 00:43:05;;;;;;;28.20;16.65;;;4.30;99.90;;;;;;4996001;28;20469;-70
2021/12/10 00:45:31;;;;;;;34.05;19.33;;;4.30;99.90;;;;;;4995987;28;20122;-69
2021/12/10 00:47:57;;;;;;;27.02;15.98;;;4.30;99.90;;;;;;4996021;28;20054;-71
2021/12/10 00:50:28;;;;;;;26.73;15.85;;;4.20;99.90;;;;;;4995994;28;20030;-71
2021/12/10 00:52:54;;;;;;;27.65;15.93;;;4.20;99.90;;;;;;4995405;28;20392;-70
2021/12/10 00:55:24;;;;;;;26.08;16.52;;;4.30;99.90;;;;;;4995834;28;20182;-70
2021/12/10 00:57:51;;;;;;;26.65;16.25;;;4.30;99.90;;;;;;4995711;28;20542;-70
2021/12/10 01:00:24;;;;;;;25.63;16.60;;;4.30;99.90;;;;;;4995796;28;20027;-71
2021/12/10 01:02:50;;;;;;;24.40;15.15;;;4.40;99.90;;;;;;4995775;28;20060;-70
2021/12/10 01:05:17;;;;;;;26.60;15.38;;;4.40;99.90;;;;;;4995696;28;20177;-71
2021/12/10 01:07:43;;;;;;;24.13;16.52;;;4.40;99.90;;;;;;4995696;28;20460;-70
2021/12/10 01:10:33;;;;;;;22.95;14.75;;;4.40;99.90;;;;;;4993954;28;20026;-70
2021/12/10 01:13:02;;;;;;;24.58;15.40;;;4.40;99.90;;;;;;4995278;28;20104;-69
2021/12/10 01:16:09;;;;;;;22.40;14.63;;;4.40;99.90;;;;;;4995190;28;20038;-71
2021/12/10 01:24:29;;;;;;;23.25;15.80;;;4.20;99.90;;;;;;4995142;28;20034;-69
2021/12/10 01:27:00;;;;;;;31.07;20.07;;;4.20;99.90;;;;;;4995362;28;20029;-68
2021/12/10 01:29:33;;;;;;;34.60;22.08;;;4.20;99.90;;;;;;4995097;28;20310;-69
2021/12/10 01:32:01;;;;;;;32.38;21.65;;;4.30;99.90;;;;;;4994948;28;20026;-70
2021/12/10 01:34:27;;;;;;;32.35;18.08;;;4.20;99.90;;;;;;4994915;28;20023;-70
2021/12/10 01:36:54;;;;;;;30.83;19.88;;;4.30;99.90;;;;;;4994832;28;20492;-70
2021/12/10 01:39:25;;;;;;;25.70;15.88;;;4.40;99.90;;;;;;4994842;28;20027;-69
2021/12/10 01:41:56;;;;;;;24.00;15.80;;;4.40;99.90;;;;;;4994839;28;20052;-70
2021/12/10 01:44:31;;;;;;;27.55;16.40;;;4.40;99.90;;;;;;4994730;28;20084;-70
2021/12/10 01:47:02;;;;;;;24.08;15.88;;;4.40;99.90;;;;;;4994581;28;20428;-71
2021/12/10 01:49:28;;;;;;;25.90;16.48;;;4.40;99.90;;;;;;4994615;28;20383;-71
2021/12/10 01:51:55;;;;;;;24.73;15.13;;;4.40;99.90;;;;;;4994444;28;20029;-71
2021/12/10 01:54:35;;;;;;;24.38;15.35;;;4.30;99.90;;;;;;4994392;28;20034;-71
2021/12/10 01:57:03;;;;;;;24.52;14.68;;;4.30;99.90;;;;;;4994594;28;20026;-71
2021/12/10 01:59:31;;;;;;;27.08;16.15;;;4.20;99.90;;;;;;4994233;28;20018;-72
2021/12/10 02:02:01;;;;;;;24.52;15.77;;;4.20;99.90;;;;;;4994460;28;20041;-70
2021/12/10 02:04:31;;;;;;;25.63;15.63;;;4.20;99.90;;;;;;4994330;28;20042;-71
2021/12/10 02:07:00;;;;;;;26.67;15.65;;;4.20;99.90;;;;;;4994324;28;20354;-69
2021/12/10 02:09:26;;;;;;;26.20;16.65;;;4.20;99.90;;;;;;4994003;28;20027;-70
2021/12/10 02:11:52;;;;;;;27.67;17.33;;;4.20;99.90;;;;;;4994444;28;20034;-70
2021/12/10 02:14:19;;;;;;;27.10;16.25;;;4.30;99.90;;;;;;4994183;28;20459;-69
2021/12/10 02:16:46;;;;;;;27.08;17.73;;;4.30;99.90;;;;;;4994026;28;20022;-70
2021/12/10 02:19:14;;;;;;;27.92;16.85;;;4.20;99.90;;;;;;4994395;28;20026;-69
2021/12/10 02:21:40;;;;;;;28.77;18.60;;;4.30;99.90;;;;;;4994025;28;20022;-69
2021/12/10 02:24:08;;;;;;;28.08;17.00;;;4.20;99.90;;;;;;4994198;28;20031;-70
2021/12/10 02:26:42;;;;;;;31.33;18.60;;;4.20;99.90;;;;;;4994227;28;20062;-70
2021/12/10 02:29:09;;;;;;;29.42;18.17;;;4.10;99.90;;;;;;4994042;28;20385;-69
2021/12/10 02:31:36;;;;;;;28.48;18.05;;;4.10;99.90;;;;;;4994020;28;20037;-70
2021/12/10 02:34:04;;;;;;;31.45;18.45;;;4.10;99.90;;;;;;4994049;28;20105;-70
2021/12/10 02:36:30;;;;;;;29.02;18.52;;;4.20;99.90;;;;;;4994165;28;20042;-70
2021/12/10 02:38:56;;;;;;;30.58;18.77;;;4.10;99.90;;;;;;4993959;28;20484;-70
2021/12/10 02:41:28;;;;;;;31.95;19.50;;;4.10;99.90;;;;;;4994108;28;20054;-70
2021/12/10 02:43:55;;;;;;;31.75;17.63;;;4.10;99.90;;;;;;4993903;28;20038;-70
2021/12/10 02:46:21;;;;;;;27.02;17.73;;;4.00;99.90;;;;;;4993760;28;20026;-70
2021/12/10 02:48:47;;;;;;;31.27;18.70;;;4.00;99.90;;;;;;4994010;28;20185;-70
2021/12/10 02:51:13;;;;;;;30.88;17.55;;;3.90;99.90;;;;;;4993830;28;20513;-69
2021/12/10 02:53:45;;;;;;;31.70;17.23;;;3.80;99.90;;;;;;4993540;28;20092;-70
2021/12/10 02:56:13;;;;;;;27.45;16.13;;;3.80;99.90;;;;;;4993638;28;20042;-71
2021/12/10 02:58:41;;;;;;;25.45;16.58;;;3.70;99.90;;;;;;4993844;28;20021;-69
2021/12/10 03:01:25;;;;;;;26.73;15.63;;;3.60;99.90;;;;;;4993645;28;20472;-70
2021/12/10 03:03:52;;;;;;;24.33;14.50;;;3.60;99.90;;;;;;4993835;28;20473;-70
2021/12/10 03:06:19;;;;;;;25.27;16.45;;;3.60;99.90;;;;;;4993681;28;20109;-70
2021/12/10 03:08:48;;;;;;;26.50;15.48;;;3.60;99.90;;;;;;4993363;28;20106;-71
2021/12/10 03:11:18;;;;;;;27.45;17.15;;;3.50;99.90;;;;;;4993330;28;20053;-70
2021/12/10 03:13:44;;;;;;;25.65;15.48;;;3.50;99.90;;;;;;4993125;28;20166;-71
2021/12/10 03:16:11;;;;;;;26.20;16.50;;;3.50;99.90;;;;;;4993121;28;20477;-70
2021/12/10 03:18:38;;;;;;;26.08;16.45;;;3.50;99.90;;;;;;4993679;28;20396;-71
2021/12/10 03:21:09;;;;;;;27.20;16.20;;;3.50;99.90;;;;;;4993517;28;20468;-71
2021/12/10 03:23:37;;;;;;;27.27;18.60;;;3.50;99.90;;;;;;4993204;28;20041;-70
2021/12/10 03:26:03;;;;;;;25.90;15.75;;;3.50;99.90;;;;;;4993064;28;20026;-72
2021/12/10 03:28:29;;;;;;;24.95;15.55;;;3.50;99.90;;;;;;4992892;28;20469;-70
2021/12/10 03:30:55;;;;;;;26.85;15.40;;;3.50;99.90;;;;;;4993242;28;20030;-71
2021/12/10 03:33:22;;;;;;;27.38;16.02;;;3.50;99.90;;;;;;4993385;28;20031;-71
2021/12/10 03:35:50;;;;;;;24.30;14.45;;;3.50;99.90;;;;;;4993264;28;20058;-70
2021/12/10 03:38:20;;;;;;;25.50;15.82;;;3.40;99.90;;;;;;4993090;28;20037;-71
2021/12/10 03:40:46;;;;;;;28.70;16.50;;;3.50;99.90;;;;;;5007861;28;20125;-71
2021/12/10 03:43:14;;;;;;;25.38;15.70;;;3.40;99.90;;;;;;4997030;28;20030;-70
2021/12/10 03:45:45;;;;;;;25.83;16.13;;;3.40;99.90;;;;;;4996922;28;20043;-70
2021/12/10 03:48:15;;;;;;;28.70;18.80;;;3.30;99.90;;;;;;4996925;28;20069;-70
2021/12/10 03:50:42;;;;;;;28.90;17.90;;;3.40;99.90;;;;;;4996602;28;20393;-70
2021/12/10 03:53:08;;;;;;;31.17;17.90;;;3.30;99.90;;;;;;4996287;28;20038;-70
2021/12/10 03:55:34;;;;;;;33.30;17.60;;;3.30;99.90;;;;;;4996528;28;20050;-71
2021/12/10 03:58:00;;;;;;;26.27;16.73;;;3.20;99.90;;;;;;4996679;28;20026;-70
2021/12/10 04:00:34;;;;;;;27.60;17.08;;;3.20;99.90;;;;;;4996666;28;20038;-71
2021/12/10 04:03:01;;;;;;;29.38;16.83;;;3.20;99.90;;;;;;4996536;28;20026;-71
2021/12/10 04:05:27;;;;;;;26.83;16.73;;;3.20;99.90;;;;;;4996680;28;20026;-70
2021/12/10 04:07:54;;;;;;;27.48;16.70;;;3.20;99.90;;;;;;4996709;28;20062;-71
2021/12/10 04:10:20;;;;;;;27.92;16.60;;;3.30;99.90;;;;;;4996360;28;20499;-70
2021/12/10 04:12:47;;;;;;;28.25;18.65;;;3.20;99.90;;;;;;4996541;28;20030;-70
2021/12/10 04:15:15;;;;;;;30.08;18.95;;;3.20;99.90;;;;;;4996318;28;20031;-70
2021/12/10 04:17:41;;;;;;;27.80;17.80;;;3.10;99.90;;;;;;4996357;28;20030;-71
2021/12/10 04:20:09;;;;;;;29.40;17.77;;;3.20;99.90;;;;;;4996316;28;20026;-71
2021/12/10 04:22:35;;;;;;;26.88;17.42;;;3.20;99.90;;;;;;4996213;28;20038;-71
2021/12/10 04:25:05;;;;;;;31.65;17.80;;;3.20;99.90;;;;;;4996091;28;20027;-70
2021/12/10 04:27:31;;;;;;;25.40;16.13;;;3.30;99.90;;;;;;4996013;28;20489;-70
2021/12/10 04:29:58;;;;;;;27.30;17.48;;;3.30;99.90;;;;;;4996232;28;20027;-72
2021/12/10 04:32:26;;;;;;;37.00;22.20;;;3.40;99.90;;;;;;4996126;28;20030;-71
2021/12/10 04:34:53;;;;;;;37.58;22.95;;;3.50;99.90;;;;;;4996068;28;20030;-70
2021/12/10 04:37:21;;;;;;;36.63;22.27;;;3.40;99.90;;;;;;4996235;28;20037;-70
2021/12/10 04:39:48;;;;;;;45.05;26.38;;;3.40;99.90;;;;;;4995921;28;20018;-70
2021/12/10 04:42:22;;;;;;;51.42;29.60;;;3.50;99.90;;;;;;4995764;28;20041;-70
2021/12/10 04:44:52;;;;;;;36.63;22.95;;;3.40;99.90;;;;;;4995803;28;20251;-71
2021/12/10 04:47:18;;;;;;;29.85;17.13;;;3.40;99.90;;;;;;4995880;28;20041;-70
2021/12/10 04:49:44;;;;;;;26.15;16.83;;;3.40;99.90;;;;;;4996064;28;20412;-70
2021/12/10 04:52:10;;;;;;;25.58;16.60;;;3.50;99.90;;;;;;4994863;28;20104;-71
2021/12/10 04:54:36;;;;;;;24.83;15.68;;;3.50;99.90;;;;;;4994629;28;20087;-71
2021/12/10 04:57:04;;;;;;;22.77;14.05;;;3.50;99.90;;;;;;4995593;28;20025;-71
2021/12/10 04:59:33;;;;;;;23.95;14.85;;;3.50;99.90;;;;;;4995892;28;20041;-69
2021/12/10 05:02:00;;;;;;;27.40;18.45;;;3.50;99.90;;;;;;4995151;28;20077;-70
2021/12/10 05:04:28;;;;;;;32.08;17.42;;;3.50;99.90;;;;;;4994948;28;20110;-71
2021/12/10 05:06:55;;;;;;;27.23;16.30;;;3.50;99.90;;;;;;4995130;28;20400;-71
2021/12/10 05:09:22;;;;;;;31.42;18.85;;;3.50;99.90;;;;;;4995087;28;20045;-72
2021/12/10 05:11:49;;;;;;;28.65;17.13;;;3.60;99.90;;;;;;4995346;28;20040;-72
2021/12/10 05:14:17;;;;;;;30.60;17.00;;;3.60;99.90;;;;;;4994944;28;20477;-70
2021/12/10 05:16:46;;;;;;;23.55;15.27;;;3.70;99.90;;;;;;4995255;28;20053;-70
2021/12/10 05:19:15;;;;;;;27.63;15.93;;;3.70;99.90;;;;;;4995097;28;20026;-70
2021/12/10 05:21:45;;;;;;;26.13;16.85;;;3.80;99.90;;;;;;4993793;28;20084;-71
2021/12/10 05:24:12;;;;;;;23.88;15.48;;;3.80;99.90;;;;;;4994747;28;20031;-70
2021/12/10 05:26:39;;;;;;;26.27;15.82;;;3.70;99.90;;;;;;4994977;28;20081;-71
2021/12/10 05:29:07;;;;;;;25.90;17.92;;;3.70;99.90;;;;;;4994856;28;20034;-72
2021/12/10 05:31:36;;;;;;;31.90;19.27;;;3.70;99.90;;;;;;4994768;28;20053;-72
2021/12/10 05:34:02;;;;;;;40.78;25.95;;;3.70;99.90;;;;;;4994882;28;20030;-71
2021/12/10 05:36:28;;;;;;;35.85;21.05;;;3.70;99.90;;;;;;4994708;28;20503;-71
2021/12/10 05:38:55;;;;;;;35.63;22.85;;;3.70;99.90;;;;;;4994682;28;20031;-72
2021/12/10 05:41:22;;;;;;;32.42;20.70;;;3.70;99.90;;;;;;4995642;28;20035;-71
2021/12/10 05:43:48;;;;;;;132.98;73.68;;;3.70;99.90;;;;;;4994659;28;20526;-71
2021/12/10 05:46:15;;;;;;;169.98;97.25;;;3.60;99.90;;;;;;4994688;28;20034;-71
2021/12/10 05:48:42;;;;;;;146.60;83.05;;;3.60;99.90;;;;;;4994265;28;20035;-71
2021/12/10 05:51:09;;;;;;;55.67;33.47;;;3.60;99.90;;;;;;4994129;28;20412;-72
2021/12/10 05:53:35;;;;;;;36.90;23.33;;;3.50;99.90;;;;;;4994287;28;20139;-71
2021/12/10 05:56:01;;;;;;;31.65;20.42;;;3.50;99.90;;;;;;4994079;28;20121;-70
2021/12/10 05:58:27;;;;;;;36.78;19.77;;;3.50;99.90;;;;;;4993720;28;20065;-72
2021/12/10 06:01:13;;;;;;;30.90;19.60;;;3.50;99.90;;;;;;4993701;28;20026;-71
2021/12/10 06:03:50;;;;;;;33.97;20.27;;;3.40;99.90;;;;;;4993784;28;20105;-71
2021/12/10 06:06:17;;;;;;;28.75;19.52;;;3.40;99.90;;;;;;4993637;28;20022;-69
2021/12/10 06:08:43;;;;;;;33.30;20.05;;;3.40;99.90;;;;;;4993800;28;20392;-71
2021/12/10 06:11:09;;;;;;;29.58;20.17;;;3.40;99.90;;;;;;4993614;28;20093;-71
2021/12/10 06:13:35;;;;;;;32.78;22.88;;;3.40;99.90;;;;;;4993674;28;20026;-70
2021/12/10 06:16:01;;;;;;;30.70;21.08;;;3.40;99.90;;;;;;4993251;28;20042;-70
2021/12/10 06:18:27;;;;;;;35.45;25.58;;;3.40;99.90;;;;;;4993261;28;20026;-70
2021/12/10 06:20:53;;;;;;;43.42;28.00;;;3.40;99.90;;;;;;4993747;28;20034;-71
2021/12/10 06:23:20;;;;;;;38.15;24.33;;;3.40;99.90;;;;;;4993417;28;20037;-72
2021/12/10 06:25:47;;;;;;;34.33;23.40;;;3.40;99.90;;;;;;4993150;28;20365;-71
2021/12/10 06:28:15;;;;;;;35.38;21.45;;;3.40;99.90;;;;;;4993054;28;20018;-71
2021/12/10 06:30:44;;;;;;;28.33;19.17;;;3.50;99.90;;;;;;4993460;28;20030;-71
2021/12/10 06:33:16;;;;;;;28.15;19.23;;;3.50;99.90;;;;;;4993371;28;20072;-71
2021/12/10 06:35:44;;;;;;;29.90;21.48;;;3.50;99.90;;;;;;4993593;28;20118;-71
2021/12/10 06:38:11;;;;;;;34.58;21.75;;;3.50;99.90;;;;;;4993299;28;20114;-71
2021/12/10 06:40:39;;;;;;;35.85;22.85;;;3.50;99.90;;;;;;4993322;28;20113;-71
2021/12/10 06:43:06;;;;;;;34.85;22.98;;;3.60;99.90;;;;;;4993562;28;20164;-72
2021/12/10 06:45:34;;;;;;;36.65;23.63;;;3.60;99.90;;;;;;4993299;28;20389;-71
2021/12/10 06:48:05;;;;;;;36.15;25.45;;;3.60;99.90;;;;;;4993395;28;20037;-71
2021/12/10 06:50:34;;;;;;;38.97;24.67;;;3.50;99.90;;;;;;4993550;28;20032;-71
2021/12/10 06:53:00;;;;;;;31.02;19.02;;;3.50;99.90;;;;;;4993354;28;20078;-71
2021/12/10 06:55:28;;;;;;;27.75;18.65;;;3.40;99.90;;;;;;4992568;28;20396;-71
2021/12/10 06:57:54;;;;;;;25.92;17.33;;;3.50;99.90;;;;;;4992925;28;20034;-71
2021/12/10 07:00:26;;;;;;;28.13;17.48;;;3.50;99.90;;;;;;4993252;28;20113;-70
2021/12/10 07:02:52;;;;;;;28.65;18.45;;;3.40;99.90;;;;;;4993429;28;20108;-71
2021/12/10 07:05:18;;;;;;;27.35;18.77;;;3.30;99.90;;;;;;5008294;28;20085;-70
2021/12/10 07:07:44;;;;;;;29.35;18.67;;;3.40;99.90;;;;;;4993194;28;20081;-69
2021/12/10 07:10:10;;;;;;;33.30;21.52;;;3.30;99.90;;;;;;4992910;28;20157;-71
2021/12/10 07:12:39;;;;;;;33.85;21.27;;;3.30;99.90;;;;;;4993016;28;20026;-71
2021/12/10 07:15:09;;;;;;;36.13;23.58;;;3.30;99.90;;;;;;4992826;28;20038;-71
2021/12/10 07:17:38;;;;;;;36.33;24.25;;;3.30;99.90;;;;;;4995969;28;20027;-71
2021/12/10 07:20:04;;;;;;;35.90;24.90;;;3.40;99.90;;;;;;4997403;28;20100;-71
2021/12/10 07:22:30;;;;;;;46.05;28.73;;;3.40;99.90;;;;;;4997269;28;20026;-71
2021/12/10 07:24:56;;;;;;;48.65;29.77;;;3.40;99.90;;;;;;4996953;28;20077;-71
2021/12/10 07:27:22;;;;;;;40.35;28.33;;;3.30;99.90;;;;;;4997136;28;20039;-71
2021/12/10 07:29:48;;;;;;;35.47;24.90;;;3.40;99.90;;;;;;4996916;28;20018;-72
2021/12/10 07:32:14;;;;;;;34.30;23.83;;;3.20;99.90;;;;;;4995023;28;20374;-70
2021/12/10 07:34:40;;;;;;;35.35;23.42;;;3.30;99.90;;;;;;4996217;28;20038;-71
2021/12/10 07:37:10;;;;;;;31.80;21.77;;;3.40;99.90;;;;;;4996918;28;20465;-70
2021/12/10 07:39:37;;;;;;;32.00;20.75;;;3.30;99.90;;;;;;4996912;28;20025;-71
2021/12/10 07:42:09;;;;;;;38.20;24.02;;;3.30;99.90;;;;;;4997559;28;20026;-71
2021/12/10 07:44:36;;;;;;;37.78;24.23;;;3.30;99.90;;;;;;4996659;28;20555;-71
2021/12/10 07:47:08;;;;;;;38.28;23.17;;;3.30;99.90;;;;;;4997062;28;20080;-70
2021/12/10 07:49:37;;;;;;;40.43;24.53;;;3.30;99.90;;;;;;4996913;28;20476;-71
2021/12/10 07:52:15;;;;;;;36.55;23.30;;;3.30;99.90;;;;;;4996625;28;20076;-71
2021/12/10 07:54:42;;;;;;;37.13;25.63;;;3.30;99.90;;;;;;4996784;28;20038;-71
2021/12/10 07:57:08;;;;;;;39.88;26.48;;;3.30;99.90;;;;;;4996354;28;20116;-71
2021/12/10 07:59:35;;;;;;;44.22;26.85;;;3.30;99.90;;;;;;4996401;28;20034;-71
2021/12/10 08:02:02;;;;;;;39.45;28.15;;;3.30;99.90;;;;;;4996492;28;20018;-71
2021/12/10 08:04:28;;;;;;;40.22;26.75;;;3.30;99.90;;;;;;4995763;28;20034;-70
2021/12/10 08:06:54;;;;;;;41.45;27.15;;;3.30;99.90;;;;;;4995661;28;20551;-71
2021/12/10 08:09:20;;;;;;;42.13;24.92;;;3.30;99.90;;;;;;4996150;28;20030;-71
2021/12/10 08:11:46;;;;;;;41.08;25.92;;;3.30;99.90;;;;;;4995811;28;20468;-71
2021/12/10 08:14:12;;;;;;;44.80;29.25;;;3.20;99.90;;;;;;4995818;28;20054;-71
2021/12/10 08:16:39;;;;;;;41.55;28.25;;;3.30;99.90;;;;;;4995967;28;20026;-71
2021/12/10 08:19:07;;;;;;;41.78;26.70;;;3.30;99.90;;;;;;4995793;28;20101;-72
2021/12/10 08:21:33;;;;;;;43.65;27.70;;;3.30;99.90;;;;;;4996086;28;20018;-70
2021/12/10 08:23:59;;;;;;;40.85;25.10;;;3.50;99.90;;;;;;4995411;28;20440;-70
2021/12/10 08:26:26;;;;;;;38.53;24.65;;;3.60;99.90;;;;;;4995929;28;20030;-70
2021/12/10 08:28:52;;;;;;;36.80;24.77;;;3.70;99.90;;;;;;4995707;28;20014;-70
2021/12/10 08:31:19;;;;;;;36.55;24.00;;;3.80;99.90;;;;;;4995953;28;20476;-71
2021/12/10 08:33:48;;;;;;;31.73;21.15;;;3.90;99.90;;;;;;4996162;28;20105;-72
2021/12/10 08:36:17;;;;;;;34.88;21.13;;;4.00;99.90;;;;;;4996314;28;20042;-71
2021/12/10 08:38:43;;;;;;;36.92;22.58;;;4.10;99.90;;;;;;4995904;28;20490;-71
2021/12/10 08:41:13;;;;;;;34.65;22.50;;;4.20;99.90;;;;;;4995598;28;20513;-71
2021/12/10 08:43:40;;;;;;;32.28;20.75;;;4.20;99.90;;;;;;4995736;28;20030;-71
2021/12/10 08:46:08;;;;;;;31.77;17.17;;;4.20;99.90;;;;;;4995901;28;20037;-71
2021/12/10 08:48:35;;;;;;;29.00;17.85;;;4.30;99.90;;;;;;4995653;28;20531;-72
2021/12/10 08:51:07;;;;;;;31.17;19.33;;;4.40;99.90;;;;;;4995619;28;20026;-72
2021/12/10 08:53:34;;;;;;;29.17;17.50;;;4.40;99.90;;;;;;4995768;28;20421;-71
2021/12/10 08:56:00;;;;;;;29.48;19.80;;;4.60;99.90;;;;;;4995254;28;20049;-72
2021/12/10 08:58:27;;;;;;;30.10;19.77;;;4.70;99.90;;;;;;4995667;28;20052;-71
2021/12/10 09:01:02;;;;;;;29.58;18.77;;;4.70;99.90;;;;;;4995604;28;20358;-72
2021/12/10 09:03:28;;;;;;;32.83;19.83;;;4.80;99.90;;;;;;4995367;28;20038;-72
2021/12/10 09:05:54;;;;;;;37.17;25.20;;;4.80;99.90;;;;;;4995160;28;20027;-71
2021/12/10 09:08:20;;;;;;;38.92;23.77;;;4.80;99.90;;;;;;4995144;28;20239;-71
2021/12/10 09:10:48;;;;;;;33.20;21.80;;;4.90;99.90;;;;;;4994616;28;20040;-72
2021/12/10 09:13:16;;;;;;;38.95;24.50;;;4.90;99.90;;;;;;4995442;28;20031;-71
2021/12/10 09:15:49;;;;;;;35.95;23.35;;;4.90;99.90;;;;;;4994910;28;20093;-72
2021/12/10 09:18:15;;;;;;;29.48;20.17;;;4.80;99.90;;;;;;4995508;28;20027;-72
2021/12/10 09:20:45;;;;;;;32.28;21.02;;;4.70;99.90;;;;;;4995569;28;20030;-71
2021/12/10 09:23:15;;;;;;;43.95;26.98;;;4.70;99.90;;;;;;4993081;28;20428;-72
2021/12/10 09:25:41;;;;;;;47.88;31.25;;;4.70;99.90;;;;;;4994850;28;20030;-71
2021/12/10 09:28:08;;;;;;;60.08;36.67;;;4.80;99.90;;;;;;4995246;28;20463;-72
2021/12/10 09:30:35;;;;;;;47.58;30.65;;;4.70;99.90;;;;;;4994734;28;20038;-71
2021/12/10 09:33:02;;;;;;;42.58;25.75;;;4.70;99.90;;;;;;4994948;28;20416;-72
2021/12/10 09:35:32;;;;;;;33.45;22.15;;;4.70;99.90;;;;;;4994972;28;20061;-72
2021/12/10 09:37:59;;;;;;;53.45;35.58;;;4.80;99.90;;;;;;4994866;28;20055;-72
2021/12/10 09:40:31;;;;;;;39.70;27.05;;;4.80;99.90;;;;;;4994246;28;20026;-71
2021/12/10 09:42:58;;;;;;;38.40;23.83;;;4.80;99.90;;;;;;4993657;28;20022;-70
2021/12/10 09:45:29;;;;;;;36.33;22.30;;;4.80;99.90;;;;;;4993890;28;20030;-71
2021/12/10 09:47:55;;;;;;;33.75;22.50;;;4.80;99.90;;;;;;4994278;28;20461;-71
2021/12/10 09:50:29;;;;;;;33.42;21.73;;;4.80;99.90;;;;;;4994789;28;20033;-72
2021/12/10 09:52:56;;;;;;;32.22;20.20;;;4.90;99.90;;;;;;4994965;28;20043;-72
2021/12/10 09:55:23;;;;;;;36.70;21.58;;;4.90;99.90;;;;;;4994633;28;20042;-70
2021/12/10 09:57:52;;;;;;;33.38;20.58;;;5.00;99.90;;;;;;4994639;28;20049;-71
2021/12/10 10:00:24;;;;;;;36.28;23.33;;;5.00;99.90;;;;;;4994548;28;20026;-71
2021/12/10 10:02:50;;;;;;;34.20;20.90;;;5.10;99.90;;;;;;4994384;28;20109;-71
2021/12/10 10:05:18;;;;;;;33.97;22.35;;;5.10;99.90;;;;;;4994268;28;20440;-72
2021/12/10 10:07:51;;;;;;;42.35;26.27;;;5.20;99.90;;;;;;4994256;28;20388;-71
2021/12/10 10:10:17;;;;;;;40.47;30.17;;;5.30;99.90;;;;;;4993979;28;20065;-72
2021/12/10 10:12:48;;;;;;;48.22;28.63;;;5.20;99.90;;;;;;4994053;28;20030;-72
2021/12/10 10:15:20;;;;;;;43.25;28.92;;;5.20;99.90;;;;;;4994143;28;20476;-70
2021/12/10 10:17:46;;;;;;;48.38;29.10;;;5.30;99.90;;;;;;4992509;28;20109;-70
2021/12/10 10:20:16;;;;;;;43.97;29.67;;;5.30;99.90;;;;;;4994045;28;20026;-71
2021/12/10 10:22:44;;;;;;;50.15;29.20;;;5.10;99.90;;;;;;4993945;28;20472;-71
2021/12/10 10:25:12;;;;;;;46.00;30.15;;;5.20;99.90;;;;;;4994039;28;20022;-72
2021/12/10 10:27:40;;;;;;;44.75;27.60;;;5.20;99.90;;;;;;4993647;28;20030;-72
2021/12/10 10:30:24;;;;;;;52.00;34.33;;;4.90;99.90;;;;;;4993858;28;20030;-71
2021/12/10 10:32:51;;;;;;;57.13;37.38;;;5.00;99.90;;;;;;4993903;28;20465;-72
2021/12/10 10:35:26;;;;;;;55.00;36.65;;;5.10;99.90;;;;;;4993749;28;20477;-71
2021/12/10 10:37:53;;;;;;;101.80;58.60;;;5.20;99.90;;;;;;4993566;28;20018;-71
2021/12/10 10:40:24;;;;;;;91.35;50.88;;;5.20;99.90;;;;;;4993695;28;20023;-71
2021/12/10 10:42:52;;;;;;;58.97;37.13;;;5.30;99.90;;;;;;4993855;28;20027;-71
2021/12/10 10:45:23;;;;;;;54.47;34.78;;;5.30;99.90;;;;;;4991272;28;20058;-70
2021/12/10 10:47:49;;;;;;;56.33;37.33;;;5.20;99.90;;;;;;4993175;28;20026;-72
2021/12/10 10:50:31;;;;;;;59.50;37.97;;;5.40;99.90;;;;;;4992911;28;20061;-71
2021/12/10 10:53:05;;;;;;;59.93;38.60;;;5.40;99.90;;;;;;4991663;28;20042;-72
2021/12/10 10:55:37;;;;;;;69.82;40.88;;;5.60;99.90;;;;;;4993439;28;20413;-71
2021/12/10 10:58:06;;;;;;;71.22;41.42;;;5.30;99.90;;;;;;4993704;28;20026;-71
2021/12/10 11:00:52;;;;;;;70.57;44.90;;;5.00;99.90;;;;;;4993438;28;20389;-71
2021/12/10 11:03:24;;;;;;;71.22;46.28;;;4.90;99.90;;;;;;4993704;28;20430;-71
2021/12/10 11:05:55;;;;;;;59.45;37.10;;;5.10;99.90;;;;;;4993476;28;20030;-71
2021/12/10 11:08:41;;;;;;;62.75;40.38;;;5.00;99.90;;;;;;4993329;28;20058;-71
2021/12/10 11:11:15;;;;;;;51.15;32.85;;;5.00;99.90;;;;;;4993496;28;20442;-71
2021/12/10 11:13:50;;;;;;;59.10;37.63;;;4.80;99.90;;;;;;4993339;28;20030;-71
2021/12/10 11:16:20;;;;;;;45.35;29.25;;;5.10;99.90;;;;;;4993061;28;20042;-71
2021/12/10 11:19:14;;;;;;;54.45;34.90;;;5.10;99.90;;;;;;4993280;28;20018;-72
2021/12/10 11:21:47;;;;;;;47.08;30.92;;;5.20;99.90;;;;;;4992830;28;20038;-71
2021/12/10 11:24:21;;;;;;;51.95;31.50;;;5.10;99.90;;;;;;4992933;28;20023;-71
2021/12/10 11:26:50;;;;;;;47.60;29.58;;;5.00;99.90;;;;;;4992695;28;20049;-70
2021/12/10 11:29:47;;;;;;;41.35;27.08;;;5.10;99.90;;;;;;4993240;28;20101;-71
2021/12/10 11:32:30;;;;;;;43.00;26.33;;;4.90;99.90;;;;;;4992973;28;20038;-71
2021/12/10 11:35:11;;;;;;;48.45;28.25;;;4.90;99.90;;;;;;4991970;28;20092;-71
2021/12/10 11:37:50;;;;;;;83.38;50.53;;;4.90;99.90;;;;;;4990874;28;20030;-71
2021/12/10 11:40:53;;;;;;;42.17;27.85;;;4.90;99.90;;;;;;4991647;28;20061;-71
2021/12/10 11:43:44;;;;;;;36.43;25.07;;;4.90;99.90;;;;;;4992396;28;20027;-71
2021/12/10 11:46:31;;;;;;;43.17;28.17;;;4.80;99.90;;;;;;4991269;28;20284;-71
2021/12/10 11:49:12;;;;;;;36.03;24.02;;;4.80;99.90;;;;;;4991617;28;20392;-71
2021/12/10 11:51:40;;;;;;;97.68;52.45;;;4.90;99.90;;;;;;4990090;28;20464;-71
2021/12/10 11:54:15;;;;;;;48.97;28.40;;;5.00;99.90;;;;;;4988014;28;20053;-69
2021/12/10 11:56:44;;;;;;;46.35;27.25;;;5.00;99.90;;;;;;4989563;28;20492;-71
2021/12/10 11:59:10;;;;;;;43.15;24.35;;;5.10;99.90;;;;;;4991835;28;20045;-71
2021/12/10 12:01:45;;;;;;;44.30;26.58;;;5.00;99.90;;;;;;4991974;28;20476;-71
2021/12/10 12:04:35;;;;;;;43.00;27.73;;;5.10;99.90;;;;;;4995528;28;20026;-71
2021/12/10 12:07:39;;;;;;;35.47;22.33;;;5.20;99.90;;;;;;4984926;28;20031;-71
2021/12/10 12:10:26;;;;;;;35.53;22.77;;;5.30;99.90;;;;;;4995816;28;20041;-71
2021/12/10 12:13:04;;;;;;;47.75;30.40;;;5.20;99.90;;;;;;4995553;28;20092;-71
2021/12/10 12:15:33;;;;;;;60.78;42.40;;;5.00;99.90;;;;;;4995006;28;20088;-71
2021/12/10 12:17:59;;;;;;;38.40;25.50;;;4.90;99.90;;;;;;4995678;28;20381;-71
2021/12/10 12:20:25;;;;;;;32.42;23.25;;;4.80;99.90;;;;;;4995967;28;20026;-69
2021/12/10 12:25:50;;;;;;;33.25;20.17;;;4.60;99.90;;;;;;4995457;28;20038;-71
2021/12/10 12:28:19;;;;;;;31.85;19.63;;;4.60;99.90;;;;;;4994812;28;20026;-71
2021/12/10 12:31:15;;;;;;;33.53;20.58;;;4.50;99.90;;;;;;4995537;28;20473;-71
2021/12/10 12:34:04;;;;;;;33.85;19.98;;;4.70;99.90;;;;;;4995336;28;20516;-71
2021/12/10 12:36:52;;;;;;;29.98;17.67;;;4.70;99.90;;;;;;4994867;28;20034;-71
2021/12/10 12:39:42;;;;;;;31.90;21.05;;;4.60;99.90;;;;;;4995214;28;20136;-72
2021/12/10 12:42:23;;;;;;;31.70;20.40;;;4.80;99.90;;;;;;4995586;28;20377;-71
2021/12/10 12:44:53;;;;;;;34.38;23.23;;;4.80;99.90;;;;;;4995168;28;20034;-71
2021/12/10 12:47:20;;;;;;;37.63;25.65;;;4.90;99.90;;;;;;4995225;28;20073;-71
2021/12/10 12:49:56;;;;;;;40.33;27.27;;;5.00;99.90;;;;;;4994953;28;20026;-71
2021/12/10 12:52:30;;;;;;;40.67;26.52;;;5.00;99.90;;;;;;4994457;28;20041;-72
2021/12/10 12:55:14;;;;;;;44.75;27.85;;;4.90;99.90;;;;;;4994925;28;20401;-71
2021/12/10 12:57:58;;;;;;;45.95;29.25;;;4.90;99.90;;;;;;4994868;28;20061;-71